sensor_id;sensor_type;location;lat;lon;timestamp;P1;durP1;ratioP1;P2;durP2;ratioP2
70975;SDS011;58635;51.198;6.010;2022-11-20T00:01:19;16.30;;;11.77;;
70975;SDS011;58635;51.198;6.010;2022-11-20T00:03:46;16.70;;;11.68;;
70975;SDS011;58635;51.198;6.010;2022-11-20T00:06:13;17.70;;;11.73;;
70975;SDS011;58635;51.198;6.010;2022-11-20T00:08:40;16.85;;;11.25;;
70975;SDS011;58635;51.198;6.010;2022-11-20T00:11:10;17.58;;;12.10;;
70975;SDS011;58635;51.198;6.010;2022-11-20T00:13:41;17.83;;;12.32;;
70975;SDS011;58635;51.198;6.010;2022-11-20T00:16:07;15.70;;;11.80;;
70975;SDS011;58635;51.198;6.010;2022-11-20T00:18:35;19.42;;;11.68;;
70975;SDS011;58635;51.198;6.010;2022-11-20T00:21:04;17.45;;;12.18;;
70975;SDS011;58635;51.198;6.010;2022-11-20T00:23:31;16.42;;;11.90;;
70975;SDS011;58635;51.198;6.010;2022-11-20T00:26:00;16.83;;;11.18;;
70975;SDS011;58635;51.198;6.010;2022-11-20T00:28:29;18.60;;;12.05;;
70975;SDS011;58635;51.198;6.010;2022-11-20T00:31:04;17.13;;;12.27;;
70975;SDS011;58635;51.198;6.010;2022-11-20T00:33:32;19.23;;;12.70;;
70975;SDS011;58635;51.198;6.010;2022-11-20T00:36:04;18.40;;;11.77;;
70975;SDS011;58635;51.198;6.010;2022-11-20T00:38:31;17.30;;;12.05;;
70975;SDS011;58635;51.198;6.010;2022-11-20T00:40:58;16.67;;;11.88;;
70975;SDS011;58635;51.198;6.010;2022-11-20T00:43:25;15.75;;;11.77;;
70975;SDS011;58635;51.198;6.010;2022-11-20T00:48:27;18.05;;;11.55;;
70975;SDS011;58635;51.198;6.010;2022-11-20T00:50:53;18.45;;;12.38;;
70975;SDS011;58635;51.198;6.010;2022-11-20T00:53:19;17.88;;;11.88;;
70975;SDS011;58635;51.198;6.010;2022-11-20T00:58:24;18.23;;;12.57;;
70975;SDS011;58635;51.198;6.010;2022-11-20T01:00:53;16.35;;;11.77;;
70975;SDS011;58635;51.198;6.010;2022-11-20T01:03:26;16.60;;;11.65;;
70975;SDS011;58635;51.198;6.010;2022-11-20T01:05:51;16.05;;;11.70;;
70975;SDS011;58635;51.198;6.010;2022-11-20T01:08:16;16.15;;;11.38;;
70975;SDS011;58635;51.198;6.010;2022-11-20T01:10:42;17.67;;;12.00;;
70975;SDS011;58635;51.198;6.010;2022-11-20T01:13:07;15.60;;;11.27;;
70975;SDS011;58635;51.198;6.010;2022-11-20T01:15:51;15.90;;;10.85;;
70975;SDS011;58635;51.198;6.010;2022-11-20T01:18:16;16.67;;;11.90;;
70975;SDS011;58635;51.198;6.010;2022-11-20T01:20:42;16.17;;;11.55;;
70975;SDS011;58635;51.198;6.010;2022-11-20T01:23:07;20.48;;;13.05;;
70975;SDS011;58635;51.198;6.010;2022-11-20T01:25:33;17.55;;;11.65;;
70975;SDS011;58635;51.198;6.010;2022-11-20T01:27:59;18.10;;;12.30;;
70975;SDS011;58635;51.198;6.010;2022-11-20T01:30:24;16.08;;;11.68;;
70975;SDS011;58635;51.198;6.010;2022-11-20T01:32:50;17.67;;;12.20;;
70975;SDS011;58635;51.198;6.010;2022-11-20T01:35:15;16.80;;;11.93;;
70975;SDS011;58635;51.198;6.010;2022-11-20T01:37:41;17.55;;;11.45;;
70975;SDS011;58635;51.198;6.010;2022-11-20T01:40:06;17.40;;;11.75;;
70975;SDS011;58635;51.198;6.010;2022-11-20T01:42:32;16.00;;;11.30;;
70975;SDS011;58635;51.198;6.010;2022-11-20T01:48:19;17.10;;;11.85;;
70975;SDS011;58635;51.198;6.010;2022-11-20T01:50:47;14.70;;;11.30;;
70975;SDS011;58635;51.198;6.010;2022-11-20T01:53:14;14.77;;;11.25;;
70975;SDS011;58635;51.198;6.010;2022-11-20T01:55:43;16.92;;;11.93;;
70975;SDS011;58635;51.198;6.010;2022-11-20T01:58:15;15.18;;;11.57;;
70975;SDS011;58635;51.198;6.010;2022-11-20T02:00:41;16.85;;;11.88;;
70975;SDS011;58635;51.198;6.010;2022-11-20T02:03:08;18.00;;;11.70;;
70975;SDS011;58635;51.198;6.010;2022-11-20T02:08:21;18.58;;;12.00;;
70975;SDS011;58635;51.198;6.010;2022-11-20T02:10:48;18.55;;;11.80;;
70975;SDS011;58635;51.198;6.010;2022-11-20T02:13:13;17.05;;;11.50;;
70975;SDS011;58635;51.198;6.010;2022-11-20T02:15:58;17.17;;;11.88;;
70975;SDS011;58635;51.198;6.010;2022-11-20T02:18:23;17.13;;;12.30;;
70975;SDS011;58635;51.198;6.010;2022-11-20T02:20:50;16.88;;;11.93;;
70975;SDS011;58635;51.198;6.010;2022-11-20T02:23:36;17.65;;;11.88;;
70975;SDS011;58635;51.198;6.010;2022-11-20T02:26:05;18.40;;;12.05;;
70975;SDS011;58635;51.198;6.010;2022-11-20T02:28:34;15.98;;;11.68;;
70975;SDS011;58635;51.198;6.010;2022-11-20T02:31:00;18.75;;;12.55;;
70975;SDS011;58635;51.198;6.010;2022-11-20T02:33:25;14.32;;;11.18;;
70975;SDS011;58635;51.198;6.010;2022-11-20T02:35:51;16.40;;;11.27;;
70975;SDS011;58635;51.198;6.010;2022-11-20T02:38:16;17.08;;;11.50;;
70975;SDS011;58635;51.198;6.010;2022-11-20T02:40:42;16.67;;;12.00;;
70975;SDS011;58635;51.198;6.010;2022-11-20T02:43:08;16.88;;;11.57;;
70975;SDS011;58635;51.198;6.010;2022-11-20T02:45:34;17.67;;;11.93;;
70975;SDS011;58635;51.198;6.010;2022-11-20T02:48:00;13.95;;;10.98;;
70975;SDS011;58635;51.198;6.010;2022-11-20T02:50:25;16.73;;;11.57;;
70975;SDS011;58635;51.198;6.010;2022-11-20T02:52:51;16.65;;;11.82;;
70975;SDS011;58635;51.198;6.010;2022-11-20T02:55:16;16.45;;;10.90;;
70975;SDS011;58635;51.198;6.010;2022-11-20T02:57:42;14.52;;;10.90;;
70975;SDS011;58635;51.198;6.010;2022-11-20T03:00:07;18.33;;;11.50;;
70975;SDS011;58635;51.198;6.010;2022-11-20T03:02:33;15.82;;;11.32;;
70975;SDS011;58635;51.198;6.010;2022-11-20T03:04:59;15.57;;;11.18;;
70975;SDS011;58635;51.198;6.010;2022-11-20T03:07:24;16.92;;;11.95;;
70975;SDS011;58635;51.198;6.010;2022-11-20T03:09:50;16.92;;;11.38;;
70975;SDS011;58635;51.198;6.010;2022-11-20T03:12:15;15.68;;;11.68;;
70975;SDS011;58635;51.198;6.010;2022-11-20T03:14:40;19.08;;;11.68;;
70975;SDS011;58635;51.198;6.010;2022-11-20T03:17:06;14.10;;;10.43;;
70975;SDS011;58635;51.198;6.010;2022-11-20T03:19:31;16.27;;;11.27;;
70975;SDS011;58635;51.198;6.010;2022-11-20T03:21:56;15.55;;;10.32;;
70975;SDS011;58635;51.198;6.010;2022-11-20T03:24:22;16.88;;;11.43;;
70975;SDS011;58635;51.198;6.010;2022-11-20T03:26:47;16.10;;;11.07;;
70975;SDS011;58635;51.198;6.010;2022-11-20T03:29:13;16.35;;;10.80;;
70975;SDS011;58635;51.198;6.010;2022-11-20T03:31:39;16.23;;;11.05;;
70975;SDS011;58635;51.198;6.010;2022-11-20T03:34:05;14.70;;;10.60;;
70975;SDS011;58635;51.198;6.010;2022-11-20T03:36:31;16.55;;;11.27;;
70975;SDS011;58635;51.198;6.010;2022-11-20T03:38:57;14.27;;;10.82;;
70975;SDS011;58635;51.198;6.010;2022-11-20T03:41:23;14.25;;;10.25;;
70975;SDS011;58635;51.198;6.010;2022-11-20T03:43:55;15.52;;;10.55;;
70975;SDS011;58635;51.198;6.010;2022-11-20T03:46:23;15.32;;;11.13;;
70975;SDS011;58635;51.198;6.010;2022-11-20T03:48:49;15.88;;;11.23;;
70975;SDS011;58635;51.198;6.010;2022-11-20T03:53:42;19.30;;;11.05;;
70975;SDS011;58635;51.198;6.010;2022-11-20T03:56:09;14.43;;;10.27;;
70975;SDS011;58635;51.198;6.010;2022-11-20T03:58:37;16.60;;;10.57;;
70975;SDS011;58635;51.198;6.010;2022-11-20T04:01:06;15.70;;;10.82;;
70975;SDS011;58635;51.198;6.010;2022-11-20T04:03:34;14.52;;;10.45;;
70975;SDS011;58635;51.198;6.010;2022-11-20T04:06:01;15.15;;;11.05;;
70975;SDS011;58635;51.198;6.010;2022-11-20T04:08:28;15.60;;;10.45;;
70975;SDS011;58635;51.198;6.010;2022-11-20T04:10:55;16.40;;;11.82;;
70975;SDS011;58635;51.198;6.010;2022-11-20T04:13:20;15.27;;;10.90;;
70975;SDS011;58635;51.198;6.010;2022-11-20T04:15:45;15.45;;;11.10;;
70975;SDS011;58635;51.198;6.010;2022-11-20T04:18:11;17.05;;;12.15;;
70975;SDS011;58635;51.198;6.010;2022-11-20T04:20:36;15.60;;;9.88;;
70975;SDS011;58635;51.198;6.010;2022-11-20T04:23:01;15.98;;;10.32;;
70975;SDS011;58635;51.198;6.010;2022-11-20T04:25:27;15.68;;;10.73;;
70975;SDS011;58635;51.198;6.010;2022-11-20T04:27:52;14.32;;;10.70;;
70975;SDS011;58635;51.198;6.010;2022-11-20T04:30:17;15.60;;;11.27;;
70975;SDS011;58635;51.198;6.010;2022-11-20T04:32:43;16.17;;;11.52;;
70975;SDS011;58635;51.198;6.010;2022-11-20T04:35:08;16.15;;;11.57;;
70975;SDS011;58635;51.198;6.010;2022-11-20T04:37:34;15.20;;;10.73;;
70975;SDS011;58635;51.198;6.010;2022-11-20T04:39:59;15.25;;;10.90;;
70975;SDS011;58635;51.198;6.010;2022-11-20T04:42:24;15.20;;;11.38;;
70975;SDS011;58635;51.198;6.010;2022-11-20T04:44:56;16.65;;;11.27;;
70975;SDS011;58635;51.198;6.010;2022-11-20T04:47:22;17.67;;;11.52;;
70975;SDS011;58635;51.198;6.010;2022-11-20T04:49:47;14.20;;;10.40;;
70975;SDS011;58635;51.198;6.010;2022-11-20T04:52:13;15.20;;;10.77;;
70975;SDS011;58635;51.198;6.010;2022-11-20T04:54:38;15.52;;;11.25;;
70975;SDS011;58635;51.198;6.010;2022-11-20T04:57:04;13.45;;;10.93;;
70975;SDS011;58635;51.198;6.010;2022-11-20T04:59:29;15.18;;;11.27;;
70975;SDS011;58635;51.198;6.010;2022-11-20T05:01:54;14.85;;;11.00;;
70975;SDS011;58635;51.198;6.010;2022-11-20T05:04:20;17.27;;;10.68;;
70975;SDS011;58635;51.198;6.010;2022-11-20T05:06:45;16.98;;;11.45;;
70975;SDS011;58635;51.198;6.010;2022-11-20T05:09:11;16.75;;;10.80;;
70975;SDS011;58635;51.198;6.010;2022-11-20T05:11:37;14.93;;;11.32;;
70975;SDS011;58635;51.198;6.010;2022-11-20T05:14:03;15.43;;;10.50;;
70975;SDS011;58635;51.198;6.010;2022-11-20T05:16:28;15.65;;;11.02;;
70975;SDS011;58635;51.198;6.010;2022-11-20T05:18:54;15.82;;;11.73;;
70975;SDS011;58635;51.198;6.010;2022-11-20T05:21:20;15.93;;;11.07;;
70975;SDS011;58635;51.198;6.010;2022-11-20T05:23:46;17.20;;;11.35;;
70975;SDS011;58635;51.198;6.010;2022-11-20T05:26:13;17.10;;;10.90;;
70975;SDS011;58635;51.198;6.010;2022-11-20T05:28:40;15.73;;;10.48;;
70975;SDS011;58635;51.198;6.010;2022-11-20T05:31:06;15.95;;;11.48;;
70975;SDS011;58635;51.198;6.010;2022-11-20T05:33:36;16.73;;;11.10;;
70975;SDS011;58635;51.198;6.010;2022-11-20T05:36:04;15.82;;;11.65;;
70975;SDS011;58635;51.198;6.010;2022-11-20T05:38:30;15.50;;;11.18;;
70975;SDS011;58635;51.198;6.010;2022-11-20T05:41:02;15.25;;;10.80;;
70975;SDS011;58635;51.198;6.010;2022-11-20T05:43:28;14.95;;;10.88;;
70975;SDS011;58635;51.198;6.010;2022-11-20T05:45:53;15.85;;;10.60;;
70975;SDS011;58635;51.198;6.010;2022-11-20T05:48:19;16.83;;;10.77;;
70975;SDS011;58635;51.198;6.010;2022-11-20T05:50:45;16.80;;;11.82;;
70975;SDS011;58635;51.198;6.010;2022-11-20T05:53:10;14.82;;;11.15;;
70975;SDS011;58635;51.198;6.010;2022-11-20T05:55:35;14.60;;;10.73;;
70975;SDS011;58635;51.198;6.010;2022-11-20T05:58:01;16.20;;;11.13;;
70975;SDS011;58635;51.198;6.010;2022-11-20T06:00:26;16.10;;;10.93;;
70975;SDS011;58635;51.198;6.010;2022-11-20T06:02:51;16.50;;;10.98;;
70975;SDS011;58635;51.198;6.010;2022-11-20T06:05:17;15.98;;;11.02;;
70975;SDS011;58635;51.198;6.010;2022-11-20T06:07:42;16.45;;;11.65;;
70975;SDS011;58635;51.198;6.010;2022-11-20T06:10:08;17.17;;;11.70;;
70975;SDS011;58635;51.198;6.010;2022-11-20T06:12:33;15.63;;;11.00;;
70975;SDS011;58635;51.198;6.010;2022-11-20T06:14:59;17.15;;;10.52;;
70975;SDS011;58635;51.198;6.010;2022-11-20T06:17:25;14.70;;;10.63;;
70975;SDS011;58635;51.198;6.010;2022-11-20T06:19:50;17.30;;;11.45;;
70975;SDS011;58635;51.198;6.010;2022-11-20T06:22:15;16.27;;;10.73;;
70975;SDS011;58635;51.198;6.010;2022-11-20T06:24:41;15.73;;;10.88;;
70975;SDS011;58635;51.198;6.010;2022-11-20T06:27:06;15.57;;;11.65;;
70975;SDS011;58635;51.198;6.010;2022-11-20T06:29:32;15.40;;;11.32;;
70975;SDS011;58635;51.198;6.010;2022-11-20T06:31:57;13.68;;;10.80;;
70975;SDS011;58635;51.198;6.010;2022-11-20T06:34:22;15.13;;;11.00;;
70975;SDS011;58635;51.198;6.010;2022-11-20T06:36:48;16.55;;;11.48;;
70975;SDS011;58635;51.198;6.010;2022-11-20T06:39:13;16.52;;;11.52;;
70975;SDS011;58635;51.198;6.010;2022-11-20T06:41:38;17.08;;;11.65;;
70975;SDS011;58635;51.198;6.010;2022-11-20T06:44:04;15.55;;;11.45;;
70975;SDS011;58635;51.198;6.010;2022-11-20T06:46:30;17.52;;;11.93;;
70975;SDS011;58635;51.198;6.010;2022-11-20T06:48:56;19.35;;;12.00;;
70975;SDS011;58635;51.198;6.010;2022-11-20T06:51:23;16.58;;;11.70;;
70975;SDS011;58635;51.198;6.010;2022-11-20T06:53:48;15.25;;;11.00;;
70975;SDS011;58635;51.198;6.010;2022-11-20T06:56:13;16.77;;;11.32;;
70975;SDS011;58635;51.198;6.010;2022-11-20T06:58:39;16.08;;;11.05;;
70975;SDS011;58635;51.198;6.010;2022-11-20T07:01:05;14.05;;;10.98;;
70975;SDS011;58635;51.198;6.010;2022-11-20T07:03:33;15.95;;;11.60;;
70975;SDS011;58635;51.198;6.010;2022-11-20T07:05:59;16.13;;;10.82;;
70975;SDS011;58635;51.198;6.010;2022-11-20T07:08:26;16.17;;;11.00;;
70975;SDS011;58635;51.198;6.010;2022-11-20T07:10:51;14.70;;;11.02;;
70975;SDS011;58635;51.198;6.010;2022-11-20T07:13:17;16.25;;;11.52;;
70975;SDS011;58635;51.198;6.010;2022-11-20T07:15:42;18.13;;;11.57;;
70975;SDS011;58635;51.198;6.010;2022-11-20T07:18:08;17.08;;;11.20;;
70975;SDS011;58635;51.198;6.010;2022-11-20T07:20:33;15.93;;;11.52;;
70975;SDS011;58635;51.198;6.010;2022-11-20T07:22:58;17.35;;;11.82;;
70975;SDS011;58635;51.198;6.010;2022-11-20T07:25:27;16.33;;;11.50;;
70975;SDS011;58635;51.198;6.010;2022-11-20T07:27:56;17.55;;;11.75;;
70975;SDS011;58635;51.198;6.010;2022-11-20T07:30:27;15.57;;;10.55;;
70975;SDS011;58635;51.198;6.010;2022-11-20T07:32:53;14.50;;;10.73;;
70975;SDS011;58635;51.198;6.010;2022-11-20T07:35:20;16.27;;;11.55;;
70975;SDS011;58635;51.198;6.010;2022-11-20T07:37:46;16.00;;;10.95;;
70975;SDS011;58635;51.198;6.010;2022-11-20T07:40:15;15.98;;;11.15;;
70975;SDS011;58635;51.198;6.010;2022-11-20T07:42:52;16.65;;;11.50;;
70975;SDS011;58635;51.198;6.010;2022-11-20T07:45:19;19.73;;;11.48;;
70975;SDS011;58635;51.198;6.010;2022-11-20T07:47:45;17.40;;;11.77;;
70975;SDS011;58635;51.198;6.010;2022-11-20T07:50:11;19.35;;;12.55;;
70975;SDS011;58635;51.198;6.010;2022-11-20T07:52:38;17.67;;;11.35;;
70975;SDS011;58635;51.198;6.010;2022-11-20T07:55:03;18.83;;;11.32;;
70975;SDS011;58635;51.198;6.010;2022-11-20T07:57:30;18.48;;;11.68;;
70975;SDS011;58635;51.198;6.010;2022-11-20T07:59:55;20.50;;;12.23;;
70975;SDS011;58635;51.198;6.010;2022-11-20T08:02:20;18.50;;;11.82;;
70975;SDS011;58635;51.198;6.010;2022-11-20T08:04:46;18.77;;;11.63;;
70975;SDS011;58635;51.198;6.010;2022-11-20T08:07:11;22.15;;;12.57;;
70975;SDS011;58635;51.198;6.010;2022-11-20T08:09:37;18.42;;;12.30;;
70975;SDS011;58635;51.198;6.010;2022-11-20T08:12:02;21.35;;;12.32;;
70975;SDS011;58635;51.198;6.010;2022-11-20T08:14:46;18.65;;;12.68;;
70975;SDS011;58635;51.198;6.010;2022-11-20T08:17:11;21.15;;;12.60;;
70975;SDS011;58635;51.198;6.010;2022-11-20T08:19:37;21.17;;;12.68;;
70975;SDS011;58635;51.198;6.010;2022-11-20T08:22:02;24.98;;;13.13;;
70975;SDS011;58635;51.198;6.010;2022-11-20T08:24:28;22.17;;;13.40;;
70975;SDS011;58635;51.198;6.010;2022-11-20T08:26:53;23.58;;;13.68;;
70975;SDS011;58635;51.198;6.010;2022-11-20T08:29:19;31.17;;;15.95;;
70975;SDS011;58635;51.198;6.010;2022-11-20T08:31:44;30.10;;;16.05;;
70975;SDS011;58635;51.198;6.010;2022-11-20T08:34:09;34.03;;;18.05;;
70975;SDS011;58635;51.198;6.010;2022-11-20T08:36:35;34.97;;;20.02;;
70975;SDS011;58635;51.198;6.010;2022-11-20T08:39:01;36.33;;;19.52;;
70975;SDS011;58635;51.198;6.010;2022-11-20T08:41:28;43.30;;;20.90;;
70975;SDS011;58635;51.198;6.010;2022-11-20T08:46:28;46.80;;;23.25;;
70975;SDS011;58635;51.198;6.010;2022-11-20T08:49:02;46.47;;;22.52;;
70975;SDS011;58635;51.198;6.010;2022-11-20T08:51:28;47.55;;;23.70;;
70975;SDS011;58635;51.198;6.010;2022-11-20T08:53:54;42.83;;;23.30;;
70975;SDS011;58635;51.198;6.010;2022-11-20T08:56:19;46.60;;;23.42;;
70975;SDS011;58635;51.198;6.010;2022-11-20T08:58:45;48.47;;;25.27;;
70975;SDS011;58635;51.198;6.010;2022-11-20T09:01:10;52.00;;;26.02;;
70975;SDS011;58635;51.198;6.010;2022-11-20T09:03:36;46.72;;;23.83;;
70975;SDS011;58635;51.198;6.010;2022-11-20T09:06:02;40.83;;;22.80;;
70975;SDS011;58635;51.198;6.010;2022-11-20T09:08:30;38.15;;;22.13;;
70975;SDS011;58635;51.198;6.010;2022-11-20T09:10:56;34.60;;;19.45;;
70975;SDS011;58635;51.198;6.010;2022-11-20T09:13:23;34.53;;;18.50;;
70975;SDS011;58635;51.198;6.010;2022-11-20T09:15:55;33.40;;;17.75;;
70975;SDS011;58635;51.198;6.010;2022-11-20T09:18:25;33.70;;;18.85;;
70975;SDS011;58635;51.198;6.010;2022-11-20T09:20:56;31.48;;;17.10;;
70975;SDS011;58635;51.198;6.010;2022-11-20T09:23:22;31.90;;;17.88;;
70975;SDS011;58635;51.198;6.010;2022-11-20T09:25:48;33.47;;;17.13;;
70975;SDS011;58635;51.198;6.010;2022-11-20T09:28:13;29.33;;;17.00;;
70975;SDS011;58635;51.198;6.010;2022-11-20T09:30:39;31.95;;;18.13;;
70975;SDS011;58635;51.198;6.010;2022-11-20T09:33:05;29.55;;;17.17;;
70975;SDS011;58635;51.198;6.010;2022-11-20T09:35:31;30.20;;;17.13;;
70975;SDS011;58635;51.198;6.010;2022-11-20T09:37:56;30.80;;;16.95;;
70975;SDS011;58635;51.198;6.010;2022-11-20T09:40:26;34.83;;;18.85;;
70975;SDS011;58635;51.198;6.010;2022-11-20T09:56:30;30.60;;;16.40;;
70975;SDS011;58635;51.198;6.010;2022-11-20T09:58:59;29.23;;;16.75;;
70975;SDS011;58635;51.198;6.010;2022-11-20T10:01:30;27.65;;;16.30;;
70975;SDS011;58635;51.198;6.010;2022-11-20T10:04:17;29.17;;;16.52;;
70975;SDS011;58635;51.198;6.010;2022-11-20T10:12:25;27.58;;;16.50;;
70975;SDS011;58635;51.198;6.010;2022-11-20T10:28:53;30.05;;;17.15;;
70975;SDS011;58635;51.198;6.010;2022-11-20T10:31:37;31.65;;;17.25;;
70975;SDS011;58635;51.198;6.010;2022-11-20T10:34:20;29.42;;;16.92;;
70975;SDS011;58635;51.198;6.010;2022-11-20T10:42:16;28.55;;;17.25;;
70975;SDS011;58635;51.198;6.010;2022-11-20T10:44:52;28.52;;;16.75;;
70975;SDS011;58635;51.198;6.010;2022-11-20T10:47:27;26.83;;;17.27;;
70975;SDS011;58635;51.198;6.010;2022-11-20T10:49:55;29.52;;;17.00;;
70975;SDS011;58635;51.198;6.010;2022-11-20T10:54:58;29.38;;;17.17;;
70975;SDS011;58635;51.198;6.010;2022-11-20T11:00:32;29.85;;;16.95;;
70975;SDS011;58635;51.198;6.010;2022-11-20T11:02:57;28.60;;;17.02;;
70975;SDS011;58635;51.198;6.010;2022-11-20T11:08:14;28.48;;;17.45;;
70975;SDS011;58635;51.198;6.010;2022-11-20T11:10:52;27.63;;;16.88;;
70975;SDS011;58635;51.198;6.010;2022-11-20T11:13:22;30.38;;;16.90;;
70975;SDS011;58635;51.198;6.010;2022-11-20T11:15:52;28.92;;;17.40;;
70975;SDS011;58635;51.198;6.010;2022-11-20T11:18:28;27.73;;;16.50;;
70975;SDS011;58635;51.198;6.010;2022-11-20T11:20:56;28.52;;;16.10;;
70975;SDS011;58635;51.198;6.010;2022-11-20T11:23:28;27.58;;;17.15;;
70975;SDS011;58635;51.198;6.010;2022-11-20T11:26:00;26.30;;;16.50;;
70975;SDS011;58635;51.198;6.010;2022-11-20T11:28:27;27.48;;;16.50;;
70975;SDS011;58635;51.198;6.010;2022-11-20T11:30:53;26.70;;;16.77;;
70975;SDS011;58635;51.198;6.010;2022-11-20T11:33:20;28.00;;;16.50;;
70975;SDS011;58635;51.198;6.010;2022-11-20T11:35:54;27.55;;;15.82;;
70975;SDS011;58635;51.198;6.010;2022-11-20T11:40:53;28.25;;;17.02;;
70975;SDS011;58635;51.198;6.010;2022-11-20T11:43:21;25.05;;;14.93;;
70975;SDS011;58635;51.198;6.010;2022-11-20T11:46:23;25.92;;;15.55;;
70975;SDS011;58635;51.198;6.010;2022-11-20T11:48:59;28.08;;;16.73;;
70975;SDS011;58635;51.198;6.010;2022-11-20T11:51:34;29.15;;;16.52;;
70975;SDS011;58635;51.198;6.010;2022-11-20T11:54:03;31.33;;;17.48;;
70975;SDS011;58635;51.198;6.010;2022-11-20T11:56:40;29.05;;;16.83;;
70975;SDS011;58635;51.198;6.010;2022-11-20T11:59:06;25.90;;;16.52;;
70975;SDS011;58635;51.198;6.010;2022-11-20T12:01:44;29.27;;;17.23;;
70975;SDS011;58635;51.198;6.010;2022-11-20T12:04:18;27.63;;;17.20;;
70975;SDS011;58635;51.198;6.010;2022-11-20T12:09:58;27.35;;;17.27;;
70975;SDS011;58635;51.198;6.010;2022-11-20T12:12:34;30.13;;;16.90;;
70975;SDS011;58635;51.198;6.010;2022-11-20T12:15:09;26.38;;;15.38;;
70975;SDS011;58635;51.198;6.010;2022-11-20T12:17:36;32.85;;;17.42;;
70975;SDS011;58635;51.198;6.010;2022-11-20T12:20:02;28.80;;;16.98;;
70975;SDS011;58635;51.198;6.010;2022-11-20T12:25:22;28.35;;;17.25;;
70975;SDS011;58635;51.198;6.010;2022-11-20T12:30:59;29.77;;;16.58;;
70975;SDS011;58635;51.198;6.010;2022-11-20T12:33:53;29.27;;;16.65;;
70975;SDS011;58635;51.198;6.010;2022-11-20T12:39:58;28.27;;;16.70;;
70975;SDS011;58635;51.198;6.010;2022-11-20T12:51:11;27.05;;;15.80;;
70975;SDS011;58635;51.198;6.010;2022-11-20T13:04:28;29.48;;;17.50;;
70975;SDS011;58635;51.198;6.010;2022-11-20T13:07:03;32.33;;;17.42;;
70975;SDS011;58635;51.198;6.010;2022-11-20T13:09:33;31.75;;;18.20;;
70975;SDS011;58635;51.198;6.010;2022-11-20T13:12:10;29.73;;;17.75;;
70975;SDS011;58635;51.198;6.010;2022-11-20T13:20:23;31.42;;;18.17;;
70975;SDS011;58635;51.198;6.010;2022-11-20T13:22:50;28.80;;;16.48;;
70975;SDS011;58635;51.198;6.010;2022-11-20T13:25:27;33.80;;;17.20;;
70975;SDS011;58635;51.198;6.010;2022-11-20T13:27:55;30.55;;;16.98;;
70975;SDS011;58635;51.198;6.010;2022-11-20T13:30:24;29.85;;;17.60;;
70975;SDS011;58635;51.198;6.010;2022-11-20T13:32:58;29.52;;;17.45;;
70975;SDS011;58635;51.198;6.010;2022-11-20T13:35:33;29.88;;;17.70;;
70975;SDS011;58635;51.198;6.010;2022-11-20T13:40:39;33.47;;;16.92;;
70975;SDS011;58635;51.198;6.010;2022-11-20T13:46:02;29.30;;;17.10;;
70975;SDS011;58635;51.198;6.010;2022-11-20T13:48:31;30.63;;;16.60;;
70975;SDS011;58635;51.198;6.010;2022-11-20T13:51:11;30.50;;;17.17;;
70975;SDS011;58635;51.198;6.010;2022-11-20T13:56:47;31.90;;;17.63;;
70975;SDS011;58635;51.198;6.010;2022-11-20T14:01:59;29.90;;;17.63;;
70975;SDS011;58635;51.198;6.010;2022-11-20T14:04:31;30.90;;;18.13;;
70975;SDS011;58635;51.198;6.010;2022-11-20T14:07:00;28.77;;;16.25;;
70975;SDS011;58635;51.198;6.010;2022-11-20T14:09:27;29.80;;;16.05;;
70975;SDS011;58635;51.198;6.010;2022-11-20T14:11:54;27.48;;;16.30;;
70975;SDS011;58635;51.198;6.010;2022-11-20T14:14:21;29.63;;;16.52;;
70975;SDS011;58635;51.198;6.010;2022-11-20T14:16:51;29.48;;;16.83;;
70975;SDS011;58635;51.198;6.010;2022-11-20T14:21:46;26.48;;;16.05;;
70975;SDS011;58635;51.198;6.010;2022-11-20T14:24:12;31.55;;;16.60;;
70975;SDS011;58635;51.198;6.010;2022-11-20T14:26:44;29.67;;;17.15;;
70975;SDS011;58635;51.198;6.010;2022-11-20T14:29:14;29.48;;;17.83;;
70975;SDS011;58635;51.198;6.010;2022-11-20T14:31:42;27.67;;;16.70;;
70975;SDS011;58635;51.198;6.010;2022-11-20T14:34:16;28.65;;;16.83;;
70975;SDS011;58635;51.198;6.010;2022-11-20T14:36:44;28.65;;;18.02;;
70975;SDS011;58635;51.198;6.010;2022-11-20T14:39:30;31.30;;;17.52;;
70975;SDS011;58635;51.198;6.010;2022-11-20T14:41:58;30.13;;;17.70;;
70975;SDS011;58635;51.198;6.010;2022-11-20T14:44:26;31.27;;;17.88;;
70975;SDS011;58635;51.198;6.010;2022-11-20T14:46:54;31.00;;;17.88;;
70975;SDS011;58635;51.198;6.010;2022-11-20T14:49:20;30.45;;;17.48;;
70975;SDS011;58635;51.198;6.010;2022-11-20T14:51:46;25.85;;;16.42;;
70975;SDS011;58635;51.198;6.010;2022-11-20T14:54:12;26.80;;;17.35;;
70975;SDS011;58635;51.198;6.010;2022-11-20T14:56:40;31.63;;;17.42;;
70975;SDS011;58635;51.198;6.010;2022-11-20T14:59:06;28.75;;;16.95;;
70975;SDS011;58635;51.198;6.010;2022-11-20T15:01:33;28.98;;;16.95;;
70975;SDS011;58635;51.198;6.010;2022-11-20T15:04:00;28.38;;;16.10;;
70975;SDS011;58635;51.198;6.010;2022-11-20T15:06:34;26.02;;;15.90;;
70975;SDS011;58635;51.198;6.010;2022-11-20T15:08:59;26.10;;;14.95;;
70975;SDS011;58635;51.198;6.010;2022-11-20T15:11:30;24.70;;;14.98;;
70975;SDS011;58635;51.198;6.010;2022-11-20T15:14:01;30.98;;;17.00;;
70975;SDS011;58635;51.198;6.010;2022-11-20T15:16:29;30.00;;;18.65;;
70975;SDS011;58635;51.198;6.010;2022-11-20T15:18:55;32.78;;;19.55;;
70975;SDS011;58635;51.198;6.010;2022-11-20T15:21:21;25.75;;;16.45;;
70975;SDS011;58635;51.198;6.010;2022-11-20T15:23:47;24.10;;;16.27;;
70975;SDS011;58635;51.198;6.010;2022-11-20T15:26:13;25.88;;;16.52;;
70975;SDS011;58635;51.198;6.010;2022-11-20T15:28:44;29.10;;;15.65;;
70975;SDS011;58635;51.198;6.010;2022-11-20T15:31:13;24.38;;;14.38;;
70975;SDS011;58635;51.198;6.010;2022-11-20T15:33:41;27.73;;;14.63;;
70975;SDS011;58635;51.198;6.010;2022-11-20T15:36:08;27.88;;;16.70;;
70975;SDS011;58635;51.198;6.010;2022-11-20T15:38:33;29.30;;;18.17;;
70975;SDS011;58635;51.198;6.010;2022-11-20T15:40:59;24.95;;;15.43;;
70975;SDS011;58635;51.198;6.010;2022-11-20T15:43:24;24.33;;;14.32;;
70975;SDS011;58635;51.198;6.010;2022-11-20T15:46:00;22.33;;;13.38;;
70975;SDS011;58635;51.198;6.010;2022-11-20T15:51:07;18.77;;;11.05;;
70975;SDS011;58635;51.198;6.010;2022-11-20T15:53:40;19.92;;;9.77;;
70975;SDS011;58635;51.198;6.010;2022-11-20T15:56:12;17.25;;;8.85;;
70975;SDS011;58635;51.198;6.010;2022-11-20T15:58:39;13.70;;;8.35;;
70975;SDS011;58635;51.198;6.010;2022-11-20T16:01:05;12.45;;;7.00;;
70975;SDS011;58635;51.198;6.010;2022-11-20T16:03:34;8.65;;;4.20;;
70975;SDS011;58635;51.198;6.010;2022-11-20T16:05:59;6.53;;;3.92;;
70975;SDS011;58635;51.198;6.010;2022-11-20T16:08:25;7.40;;;4.13;;
70975;SDS011;58635;51.198;6.010;2022-11-20T16:10:50;7.90;;;3.80;;
70975;SDS011;58635;51.198;6.010;2022-11-20T16:13:16;6.80;;;2.92;;
70975;SDS011;58635;51.198;6.010;2022-11-20T16:16:02;5.47;;;2.85;;
70975;SDS011;58635;51.198;6.010;2022-11-20T16:18:30;5.78;;;3.00;;
70975;SDS011;58635;51.198;6.010;2022-11-20T16:20:56;6.10;;;2.78;;
70975;SDS011;58635;51.198;6.010;2022-11-20T16:23:22;5.47;;;2.30;;
70975;SDS011;58635;51.198;6.010;2022-11-20T16:25:48;3.80;;;2.00;;
70975;SDS011;58635;51.198;6.010;2022-11-20T16:28:14;3.97;;;2.28;;